Time;durP1;ratioP1;P1;durP2;ratioP2;P2;SDS_P1;SDS_P2;PMS_P1;PMS_P2;Temp;Humidity;BMP_temperature;BMP_pressure;BME280_temperature;BME280_humidity;BME280_pressure;Samples;Min_cycle;Max_cycle;Signal;HPM_P1;HPM_P2
2021/10/03 00:00:16;;;;;;;;;;;;;;;-142.75;100.00;74968.28;5109546;27;19926;-81
2021/10/03 00:02:43;;;;;;;;;;;;;;;-142.75;100.00;74972.22;5116668;27;19915;-82
2021/10/03 00:05:11;;;;;;;;;;;;;;;-142.75;100.00;74978.13;5109858;22;19986;-79
2021/10/03 00:07:38;;;;;;;;;;;;;;;-142.75;100.00;74970.25;5069354;28;20390;-79
2021/10/03 00:10:03;;;;;;;;;;;;;;;-142.75;100.00;74974.19;5051949;28;19921;-79
2021/10/03 00:12:28;;;;;;;;;;;;;;;-142.75;100.00;74962.38;5070488;28;20374;-81
2021/10/03 00:14:54;;;;;;;;;;;;;;;-142.75;100.00;74964.34;5052467;28;19925;-79
2021/10/03 00:17:19;;;;;;;;;;;;;;;-142.75;100.00;74952.53;5055655;28;19916;-79
2021/10/03 00:19:44;;;;;;;;;;;;;;;-142.75;100.00;74944.66;5062988;28;19924;-80
2021/10/03 00:22:10;;;;;;;;;;;;;;;-142.75;100.00;74952.53;5066038;28;19917;-80
2021/10/03 00:24:35;;;;;;;;;;;;;;;-142.75;100.00;74956.47;5050463;28;20374;-80
2021/10/03 00:27:01;;;;;;;;;;;;;;;-142.75;100.00;74960.41;5063336;28;20008;-80
2021/10/03 00:29:26;;;;;;;;;;;;;;;-142.75;100.00;74960.41;5051467;28;20263;-79
2021/10/03 00:31:52;;;;;;;;;;;;;;;-142.75;100.00;74952.53;5050994;28;19979;-80
2021/10/03 00:34:17;;;;;;;;;;;;;;;-142.75;100.00;74956.47;5052008;28;20492;-81
2021/10/03 00:36:42;;;;;;;;;;;;;;;-142.75;100.00;74958.44;5051326;28;20025;-80
2021/10/03 00:39:08;;;;;;;;;;;;;;;-142.75;100.00;74968.28;5071346;28;19924;-79
2021/10/03 00:41:33;;;;;;;;;;;;;;;-142.75;100.00;74972.22;5070487;28;19920;-80
2021/10/03 00:43:59;;;;;;;;;;;;;;;-142.75;100.00;74962.38;5071580;28;19916;-80
2021/10/03 00:46:24;;;;;;;;;;;;;;;-142.75;100.00;74960.41;5070422;28;19916;-80
2021/10/03 00:48:49;;;;;;;;;;;;;;;-142.75;100.00;74970.25;5071813;28;19916;-79
2021/10/03 00:51:15;;;;;;;;;;;;;;;-142.75;100.00;74984.00;5072646;28;20396;-79
2021/10/03 00:53:40;;;;;;;;;;;;;;;-142.75;100.00;74972.22;5072032;28;19917;-78
2021/10/03 00:56:07;;;;;;;;;;;;;;;-142.75;100.00;74974.19;5071147;28;20335;-78
2021/10/03 00:58:32;;;;;;;;;;;;;;;-142.75;100.00;74984.00;5072091;28;19928;-79
2021/10/03 01:00:58;;;;;;;;;;;;;;;-142.75;100.00;74984.00;5063030;28;20294;-81
2021/10/03 01:03:23;;;;;;;;;;;;;;;-142.75;100.00;75001.72;5050315;28;20409;-80
2021/10/03 01:05:48;;;;;;;;;;;;;;;-142.75;100.00;74995.81;5049182;28;19924;-79
2021/10/03 01:08:13;;;;;;;;;;;;;;;-142.75;100.00;75009.59;5050203;28;19999;-79
2021/10/03 01:10:38;;;;;;;;;;;;;;;-142.75;100.00;75007.63;5051682;28;20370;-79
2021/10/03 01:13:08;;;;;;;;;;;;;;;-142.75;100.00;75011.56;5051456;28;19916;-80
2021/10/03 01:15:35;;;;;;;;;;;;;;;-142.75;100.00;75011.56;5049328;28;19970;-78
2021/10/03 01:18:01;;;;;;;;;;;;;;;-142.75;100.00;75015.50;5050615;28;19964;-79
2021/10/03 01:20:26;;;;;;;;;;;;;;;-142.75;100.00;75023.38;5051343;28;19963;-80
2021/10/03 01:22:51;;;;;;;;;;;;;;;-142.75;100.00;75023.38;5049862;28;19920;-80
2021/10/03 01:25:17;;;;;;;;;;;;;;;-142.75;100.00;75021.41;5049381;28;19925;-79
2021/10/03 01:27:42;;;;;;;;;;;;;;;-142.75;100.00;75035.19;5051166;28;19939;-79
2021/10/03 01:30:09;;;;;;;;;;;;;;;-142.75;100.00;75045.00;5051998;28;20267;-79
2021/10/03 01:32:35;;;;;;;;;;;;;;;-142.75;100.00;75043.03;5049851;28;19971;-79
2021/10/03 01:35:00;;;;;;;;;;;;;;;-142.75;100.00;75066.66;5049791;28;19939;-79
2021/10/03 01:37:25;;;;;;;;;;;;;;;-142.75;100.00;75082.41;5050889;28;19956;-80
2021/10/03 01:39:51;;;;;;;;;;;;;;;-142.75;100.00;75078.47;5049559;28;19970;-80
2021/10/03 01:42:16;;;;;;;;;;;;;;;-142.75;100.00;75082.41;5051262;28;20294;-79
2021/10/03 01:44:41;;;;;;;;;;;;;;;-142.75;100.00;75082.41;5051058;28;20011;-79
2021/10/03 01:47:06;;;;;;;;;;;;;;;-142.75;100.00;75094.22;5060555;28;19927;-80
2021/10/03 01:49:31;;;;;;;;;;;;;;;-142.75;100.00;75109.94;5069468;28;19916;-79
2021/10/03 01:51:57;;;;;;;;;;;;;;;-142.75;100.00;75137.50;5061080;28;19925;-79
2021/10/03 01:54:22;;;;;;;;;;;;;;;-142.75;100.00;75149.31;5068027;28;19924;-78
2021/10/03 01:56:47;;;;;;;;;;;;;;;-142.75;100.00;75159.16;5069288;28;19924;-79
2021/10/03 01:59:13;;;;;;;;;;;;;;;-142.75;100.00;75167.00;5071562;28;19924;-80
2021/10/03 02:01:43;;;;;;;;;;;;;;;-142.75;100.00;75176.84;5051227;28;19956;-80
2021/10/03 02:04:13;;;;;;;;;;;;;;;-142.75;100.00;75172.91;5050368;28;19921;-79
2021/10/03 02:06:42;;;;;;;;;;;;;;;-142.75;100.00;75176.84;5050991;28;19968;-79
2021/10/03 02:09:09;;;;;;;;;;;;;;;-142.75;100.00;75184.72;5068804;28;19924;-79
2021/10/03 02:11:39;;;;;;;;;;;;;;;-142.75;100.00;75186.69;5069179;28;19926;-80
2021/10/03 02:14:04;;;;;;;;;;;;;;;-142.75;100.00;75190.63;5063836;28;19917;-78
2021/10/03 02:16:30;;;;;;;;;;;;;;;-142.75;100.00;75196.53;5048888;28;19943;-79
2021/10/03 02:18:55;;;;;;;;;;;;;;;-142.75;100.00;75220.16;5050108;28;19925;-78
2021/10/03 02:21:21;;;;;;;;;;;;;;;-142.75;100.00;75216.22;5048741;28;20024;-78
2021/10/03 02:23:46;;;;;;;;;;;;;;;-142.75;100.00;75224.09;5070037;28;19916;-77
2021/10/03 02:26:11;;;;;;;;;;;;;;;-142.75;100.00;75228.00;5068522;28;19917;-79
2021/10/03 02:28:37;;;;;;;;;;;;;;;-142.75;100.00;75224.09;5071267;28;19947;-79
2021/10/03 02:31:07;;;;;;;;;;;;;;;-142.75;100.00;75224.09;5067377;28;20500;-79
2021/10/03 02:33:32;;;;;;;;;;;;;;;-142.75;100.00;75231.94;5069280;28;19916;-79
2021/10/03 02:35:58;;;;;;;;;;;;;;;-142.75;100.00;75235.88;5062011;28;19924;-79
2021/10/03 02:38:25;;;;;;;;;;;;;;;-142.75;100.00;75231.94;5050468;28;19947;-79
2021/10/03 02:40:51;;;;;;;;;;;;;;;-142.75;100.00;75251.63;5048484;28;20425;-78
2021/10/03 02:43:17;;;;;;;;;;;;;;;-142.75;100.00;75257.53;5048736;28;19917;-77
2021/10/03 02:45:44;;;;;;;;;;;;;;;-142.75;100.00;75267.38;5049867;28;19924;-78
2021/10/03 02:48:10;;;;;;;;;;;;;;;-142.75;100.00;75267.38;5048682;28;19923;-77
2021/10/03 02:50:35;;;;;;;;;;;;;;;-142.75;100.00;75267.38;5049765;28;19916;-78
2021/10/03 02:53:02;;;;;;;;;;;;;;;-142.75;100.00;75281.16;5049858;28;19923;-79
2021/10/03 02:55:28;;;;;;;;;;;;;;;-142.75;100.00;75275.25;5049172;28;19967;-78
2021/10/03 02:57:53;;;;;;;;;;;;;;;-142.75;100.00;75277.22;5050091;28;19948;-79
2021/10/03 03:00:18;;;;;;;;;;;;;;;-142.75;100.00;75283.13;5049440;28;19917;-79
2021/10/03 03:02:43;;;;;;;;;;;;;;;-142.75;100.00;75275.25;5053036;28;19916;-78
2021/10/03 03:05:10;;;;;;;;;;;;;;;-142.75;100.00;75269.34;5069471;28;19995;-79
2021/10/03 03:07:36;;;;;;;;;;;;;;;-142.75;100.00;75340.19;5059390;28;19923;-80
2021/10/03 03:10:01;;;;;;;;;;;;;;;-142.75;100.00;75308.69;5049536;28;19917;-80
2021/10/03 03:12:27;;;;;;;;;;;;;;;-142.75;100.00;75294.94;5048631;28;20291;-79
2021/10/03 03:14:52;;;;;;;;;;;;;;;-142.75;100.00;75289.03;5058063;28;19917;-78
2021/10/03 03:17:19;;;;;;;;;;;;;;;-142.75;100.00;75283.13;5049812;28;19917;-78
2021/10/03 03:19:44;;;;;;;;;;;;;;;-142.75;100.00;75289.03;5061006;28;19943;-79
2021/10/03 03:22:10;;;;;;;;;;;;;;;-142.75;100.00;75291.00;5071790;28;20378;-79
2021/10/03 03:24:36;;;;;;;;;;;;;;;-142.75;100.00;75291.00;5071585;28;19924;-79
2021/10/03 03:27:01;;;;;;;;;;;;;;;-142.75;100.00;75302.78;5072192;28;20045;-78
2021/10/03 03:29:26;;;;;;;;;;;;;;;-142.75;100.00;75294.94;5073857;28;19946;-78
2021/10/03 03:31:53;;;;;;;;;;;;;;;-142.75;100.00;75304.75;5073175;28;19916;-79
2021/10/03 03:34:18;;;;;;;;;;;;;;;-142.75;100.00;75302.78;5052524;28;19916;-78
2021/10/03 03:36:44;;;;;;;;;;;;;;;-142.75;100.00;75312.63;5052890;28;20267;-78
2021/10/03 03:39:09;;;;;;;;;;;;;;;-142.75;100.00;75304.75;5051967;28;19921;-78
2021/10/03 03:41:34;;;;;;;;;;;;;;;-142.75;100.00;75302.78;5053273;28;20604;-77
2021/10/03 03:43:59;;;;;;;;;;;;;;;-142.75;100.00;75306.72;5051129;28;19978;-80
2021/10/03 03:46:24;;;;;;;;;;;;;;;-142.75;100.00;75298.84;5052911;28;20004;-79
2021/10/03 03:48:50;;;;;;;;;;;;;;;-142.75;100.00;75298.84;5051632;28;19917;-78
2021/10/03 03:51:15;;;;;;;;;;;;;;;-142.75;100.00;75306.72;5051431;28;20070;-78
2021/10/03 03:53:40;;;;;;;;;;;;;;;-142.75;100.00;75306.72;5051077;28;19931;-78
2021/10/03 03:56:05;;;;;;;;;;;;;;;-142.75;100.00;75314.59;5052645;28;19923;-78
2021/10/03 03:58:31;;;;;;;;;;;;;;;-142.75;100.00;75324.44;5053340;28;19921;-79
2021/10/03 04:00:56;;;;;;;;;;;;;;;-142.75;100.00;75316.56;5052081;28;19924;-79
2021/10/03 04:03:21;;;;;;;;;;;;;;;-142.75;100.00;75334.28;5051417;28;19971;-78
2021/10/03 04:05:46;;;;;;;;;;;;;;;-142.75;100.00;75352.00;5052095;28;19921;-79
2021/10/03 04:08:11;;;;;;;;;;;;;;;-142.75;100.00;75365.75;5051404;28;19967;-79
2021/10/03 04:10:37;;;;;;;;;;;;;;;-142.75;100.00;75377.56;5051409;28;19923;-78
2021/10/03 04:13:02;;;;;;;;;;;;;;;-142.75;100.00;75391.34;5051505;28;19970;-78
2021/10/03 04:15:27;;;;;;;;;;;;;;;-142.75;100.00;75401.19;5052242;28;19917;-78
2021/10/03 04:17:52;;;;;;;;;;;;;;;-142.75;100.00;75401.19;5051434;28;19979;-78
2021/10/03 04:20:18;;;;;;;;;;;;;;;-142.75;100.00;75407.09;5051182;28;19951;-78
2021/10/03 04:22:43;;;;;;;;;;;;;;;-142.75;100.00;75407.09;5051379;28;19921;-77
2021/10/03 04:25:08;;;;;;;;;;;;;;;-142.75;100.00;75414.97;5050979;28;20011;-78
2021/10/03 04:27:34;;;;;;;;;;;;;;;-142.75;100.00;75426.78;5051214;28;20437;-78
2021/10/03 04:29:59;;;;;;;;;;;;;;;-142.75;100.00;75436.59;5051820;28;19917;-78
2021/10/03 04:32:24;;;;;;;;;;;;;;;-142.75;100.00;75448.41;5049719;28;19921;-77
2021/10/03 04:34:50;;;;;;;;;;;;;;;-142.75;100.00;75464.16;5050059;28;20017;-77
2021/10/03 04:37:15;;;;;;;;;;;;;;;-142.75;100.00;75452.34;5050754;28;20390;-78
2021/10/03 04:39:40;;;;;;;;;;;;;;;-142.75;100.00;75452.34;5050508;28;20321;-78
2021/10/03 04:42:05;;;;;;;;;;;;;;;-142.75;100.00;75450.38;5051704;28;19920;-78
2021/10/03 04:44:30;;;;;;;;;;;;;;;-142.75;100.00;75466.13;5051514;28;19924;-78
2021/10/03 04:46:56;;;;;;;;;;;;;;;-142.75;100.00;75481.88;5050453;28;19917;-79
2021/10/03 04:49:21;;;;;;;;;;;;;;;-142.75;100.00;75460.22;5051780;28;19931;-78
2021/10/03 04:51:46;;;;;;;;;;;;;;;-142.75;100.00;75472.03;5051779;28;19921;-78
2021/10/03 04:54:12;;;;;;;;;;;;;;;-142.75;100.00;75475.97;5050796;28;19917;-79
2021/10/03 04:56:37;;;;;;;;;;;;;;;-142.75;100.00;75495.66;5069851;28;19923;-78
2021/10/03 04:59:02;;;;;;;;;;;;;;;-142.75;100.00;75491.72;5071082;28;19925;-79
2021/10/03 05:01:27;;;;;;;;;;;;;;;-142.75;100.00;75483.84;5071429;28;19916;-78
2021/10/03 05:03:52;;;;;;;;;;;;;;;-142.75;100.00;75481.88;5071377;28;19936;-78
2021/10/03 05:06:18;;;;;;;;;;;;;;;-142.75;100.00;75485.81;5070881;28;20390;-78
2021/10/03 05:08:43;;;;;;;;;;;;;;;-142.75;100.00;75493.69;5070213;28;19921;-79
2021/10/03 05:11:08;;;;;;;;;;;;;;;-142.75;100.00;75493.69;5071028;28;20010;-79
2021/10/03 05:13:33;;;;;;;;;;;;;;;-142.75;100.00;75495.66;5071489;28;19975;-79
2021/10/03 05:15:59;;;;;;;;;;;;;;;-142.75;100.00;75495.66;5070915;28;19916;-80
2021/10/03 05:18:24;;;;;;;;;;;;;;;-142.75;100.00;75472.03;5070186;28;22373;-79
2021/10/03 05:20:49;;;;;;;;;;;;;;;-142.75;100.00;75477.94;5062521;28;20389;-78
2021/10/03 05:23:14;;;;;;;;;;;;;;;-142.75;100.00;75472.03;5071415;28;19920;-79
2021/10/03 05:25:40;;;;;;;;;;;;;;;-142.75;100.00;75475.97;5070555;28;19917;-80
2021/10/03 05:28:05;;;;;;;;;;;;;;;-142.75;100.00;75472.03;5053504;28;20023;-79
2021/10/03 05:30:30;;;;;;;;;;;;;;;-142.75;100.00;75470.06;5050882;28;20378;-79
2021/10/03 05:32:56;;;;;;;;;;;;;;;-142.75;100.00;75483.84;5065228;28;19970;-78
2021/10/03 05:35:21;;;;;;;;;;;;;;;-142.75;100.00;75472.03;5057974;28;20383;-78
2021/10/03 05:37:46;;;;;;;;;;;;;;;-142.75;100.00;75479.91;5050963;28;20544;-78
2021/10/03 05:40:12;;;;;;;;;;;;;;;-142.75;100.00;75487.78;5051321;28;20448;-78
2021/10/03 05:42:37;;;;;;;;;;;;;;;-142.75;100.00;75481.88;5051065;28;19923;-80
2021/10/03 05:45:03;;;;;;;;;;;;;;;-142.75;100.00;75475.97;5050535;28;19921;-79
2021/10/03 05:47:28;;;;;;;;;;;;;;;-142.75;100.00;75495.66;5050733;28;19963;-79
2021/10/03 05:49:53;;;;;;;;;;;;;;;-142.75;100.00;75493.69;5049450;28;20313;-80
2021/10/03 05:52:18;;;;;;;;;;;;;;;-142.75;100.00;75487.78;5053610;28;19968;-80
2021/10/03 05:54:44;;;;;;;;;;;;;;;-142.75;100.00;75495.66;5055026;28;19917;-80
2021/10/03 05:57:09;;;;;;;;;;;;;;;-142.75;100.00;75501.56;5055935;28;19917;-79
2021/10/03 05:59:34;;;;;;;;;;;;;;;-142.75;100.00;75495.66;5071235;28;19920;-79
2021/10/03 06:01:59;;;;;;;;;;;;;;;-142.75;100.00;75497.63;5069211;28;19917;-79
2021/10/03 06:06:52;;;;;;;;;;;;;;;-142.75;100.00;75509.44;5117197;22;20459;-83
2021/10/03 06:09:17;;;;;;;;;;;;;;;-142.75;100.00;75515.31;5107831;28;19924;-83
2021/10/03 06:11:43;;;;;;;;;;;;;;;-142.75;100.00;75525.16;5099645;28;19951;-82
2021/10/03 06:14:08;;;;;;;;;;;;;;;-142.75;100.00;75529.09;5102204;28;19956;-82
2021/10/03 06:16:33;;;;;;;;;;;;;;;-142.75;100.00;75538.94;5099032;28;19962;-82
2021/10/03 06:18:58;;;;;;;;;;;;;;;-142.75;100.00;75548.78;5102804;28;19920;-83
2021/10/03 06:21:25;;;;;;;;;;;;;;;-142.75;100.00;75538.94;5098514;28;19916;-82
2021/10/03 06:23:51;;;;;;;;;;;;;;;-142.75;100.00;75542.88;5102354;28;20249;-83
2021/10/03 06:26:16;;;;;;;;;;;;;;;-142.75;100.00;75570.44;5107657;28;20647;-83
2021/10/03 06:28:41;;;;;;;;;;;;;;;-142.75;100.00;75562.56;5100702;28;19941;-84
2021/10/03 06:31:07;;;;;;;;;;;;;;;-142.75;100.00;75566.50;5103724;28;19923;-83
2021/10/03 06:33:32;;;;;;;;;;;;;;;-142.75;100.00;75580.28;5096114;28;19916;-84
2021/10/03 06:35:57;;;;;;;;;;;;;;;-142.75;100.00;75578.31;5109076;28;19915;-83
2021/10/03 06:38:23;;;;;;;;;;;;;;;-142.75;100.00;75568.47;5107760;28;20004;-83
2021/10/03 06:40:48;;;;;;;;;;;;;;;-142.75;100.00;75572.41;5090839;28;19916;-82
2021/10/03 06:43:14;;;;;;;;;;;;;;;-142.75;100.00;75572.41;5090858;28;19923;-84
2021/10/03 06:45:39;;;;;;;;;;;;;;;-142.75;100.00;75570.44;5097378;28;20389;-83
2021/10/03 06:48:04;;;;;;;;;;;;;;;-142.75;100.00;75566.50;5107347;28;19916;-84
2021/10/03 06:50:29;;;;;;;;;;;;;;;-142.75;100.00;75566.50;5093793;28;19923;-83
2021/10/03 06:52:55;;;;;;;;;;;;;;;-142.75;100.00;75566.50;5107460;28;20440;-84
2021/10/03 06:55:20;;;;;;;;;;;;;;;-142.75;100.00;75566.50;5101626;28;19920;-84
2021/10/03 06:57:45;;;;;;;;;;;;;;;-142.75;100.00;75576.34;5100916;28;20006;-83
2021/10/03 07:00:10;;;;;;;;;;;;;;;-142.75;100.00;75576.34;5095333;28;19923;-82
2021/10/03 07:02:37;;;;;;;;;;;;;;;-142.75;100.00;75584.22;5104576;28;19923;-82
2021/10/03 07:05:02;;;;;;;;;;;;;;;-142.75;100.00;75574.38;5114888;28;20003;-83
2021/10/03 07:07:28;;;;;;;;;;;;;;;-142.75;100.00;75576.34;5103663;28;20476;-82
2021/10/03 07:09:54;;;;;;;;;;;;;;;-142.75;100.00;75578.31;5107881;28;19938;-84
2021/10/03 07:12:19;;;;;;;;;;;;;;;-142.75;100.00;75597.97;5103853;28;19916;-83
2021/10/03 07:14:44;;;;;;;;;;;;;;;-142.75;100.00;75590.13;5095669;28;20378;-83
2021/10/03 07:17:10;;;;;;;;;;;;;;;-142.75;100.00;75570.44;5112839;28;20011;-83
2021/10/03 07:19:36;;;;;;;;;;;;;;;-142.75;100.00;75546.81;5101229;28;19920;-83
2021/10/03 07:22:02;;;;;;;;;;;;;;;-142.75;100.00;75556.66;5104758;28;20284;-81
2021/10/03 07:24:27;;;;;;;;;;;;;;;-142.75;100.00;75564.53;5105404;28;19923;-83
2021/10/03 07:26:52;;;;;;;;;;;;;;;-142.75;100.00;75596.00;5098989;28;19916;-84
2021/10/03 07:29:18;;;;;;;;;;;;;;;-142.75;100.00;75617.66;5115046;28;19922;-84
2021/10/03 07:31:43;;;;;;;;;;;;;;;-142.75;100.00;75623.56;5100758;28;20325;-84
2021/10/03 07:34:08;;;;;;;;;;;;;;;-142.75;100.00;75617.66;5115423;28;20010;-82
2021/10/03 07:36:33;;;;;;;;;;;;;;;-142.75;100.00;75637.34;5107643;28;19995;-82
2021/10/03 07:38:59;;;;;;;;;;;;;;;-142.75;100.00;75627.50;5117377;28;20551;-82
2021/10/03 07:41:24;;;;;;;;;;;;;;;-142.75;100.00;75627.50;5110380;28;19920;-83
2021/10/03 07:43:49;;;;;;;;;;;;;;;-142.75;100.00;75647.19;5103678;28;20513;-82
2021/10/03 07:46:16;;;;;;;;;;;;;;;-142.75;100.00;75649.16;5097774;28;19931;-82
2021/10/03 07:48:41;;;;;;;;;;;;;;;-142.75;100.00;75637.34;5115233;28;19926;-81
2021/10/03 07:51:07;;;;;;;;;;;;;;;-142.75;100.00;75627.50;5114680;28;20342;-83
2021/10/03 07:53:32;;;;;;;;;;;;;;;-142.75;100.00;75627.50;5100638;28;19916;-83
2021/10/03 07:55:58;;;;;;;;;;;;;;;-142.75;100.00;75637.34;5110063;28;19916;-82
2021/10/03 07:58:23;;;;;;;;;;;;;;;-142.75;100.00;75629.47;5116509;28;19928;-82
2021/10/03 08:00:48;;;;;;;;;;;;;;;-142.75;100.00;75629.47;5113353;28;19916;-81
2021/10/03 08:03:13;;;;;;;;;;;;;;;-142.75;100.00;75621.59;5099988;28;19923;-81
2021/10/03 08:05:39;;;;;;;;;;;;;;;-142.75;100.00;75621.59;5114035;28;19915;-82
2021/10/03 08:08:04;;;;;;;;;;;;;;;-142.75;100.00;75629.47;5106811;28;20274;-82
2021/10/03 08:10:30;;;;;;;;;;;;;;;-142.75;100.00;75609.78;5097000;28;19920;-82
2021/10/03 08:12:55;;;;;;;;;;;;;;;-142.75;100.00;75588.16;5095778;28;19924;-81
2021/10/03 08:15:20;;;;;;;;;;;;;;;-142.75;100.00;75574.38;5103414;28;19920;-79
2021/10/03 08:17:45;;;;;;;;;;;;;;;-142.75;100.00;75607.81;5110857;28;19916;-82
2021/10/03 08:20:11;;;;;;;;;;;;;;;-142.75;100.00;75578.31;5119334;28;19927;-81
2021/10/03 08:22:36;;;;;;;;;;;;;;;-142.75;100.00;75560.59;5120296;28;19915;-82
2021/10/03 08:25:05;;;;;;;;;;;;;;;-142.75;100.00;75582.25;5104046;28;19916;-82
2021/10/03 08:27:30;;;;;;;;;;;;;;;-142.75;100.00;75597.97;5116977;28;19952;-83
2021/10/03 08:29:56;;;;;;;;;;;;;;;-142.75;100.00;75584.22;5110663;28;19916;-83
2021/10/03 08:32:21;;;;;;;;;;;;;;;-142.75;100.00;75576.34;5098422;28;19923;-80
2021/10/03 08:34:46;;;;;;;;;;;;;;;-142.75;100.00;75582.25;5096722;28;19920;-81
2021/10/03 08:37:11;;;;;;;;;;;;;;;-142.75;100.00;75605.84;5106070;28;19938;-82
2021/10/03 08:39:36;;;;;;;;;;;;;;;-142.75;100.00;75590.13;5115568;28;20389;-82
2021/10/03 08:42:02;;;;;;;;;;;;;;;-142.75;100.00;75601.91;5111354;28;19916;-83
2021/10/03 08:44:31;;;;;;;;;;;;;;;-142.75;100.00;75605.84;5107070;28;19915;-82
2021/10/03 08:46:56;;;;;;;;;;;;;;;-142.75;100.00;75572.41;5118712;28;19915;-81
2021/10/03 08:49:21;;;;;;;;;;;;;;;-142.75;100.00;75566.50;5104561;28;20389;-82
2021/10/03 08:51:47;;;;;;;;;;;;;;;-142.75;100.00;75558.63;5101106;28;19926;-82
2021/10/03 08:54:15;;;;;;;;;;;;;;;-142.75;100.00;75538.94;5102072;28;19917;-82
2021/10/03 08:56:40;;;;;;;;;;;;;;;-142.75;100.00;75521.22;5099498;28;19923;-82
2021/10/03 08:59:05;;;;;;;;;;;;;;;-142.75;100.00;75544.84;5099860;28;19920;-83
2021/10/03 09:01:45;;;;;;;;;;;;;;;-142.75;100.00;75562.56;5100731;28;20006;-84
2021/10/03 09:04:23;;;;;;;;;;;;;;;-142.75;100.00;75544.84;5107811;28;19959;-83
2021/10/03 09:07:06;;;;;;;;;;;;;;;-142.75;100.00;75548.78;5107815;28;19959;-84
2021/10/03 09:09:58;;;;;;;;;;;;;;;-142.75;100.00;75550.75;5116586;28;19926;-83
2021/10/03 09:12:23;;;;;;;;;;;;;;;-142.75;100.00;75550.75;5113844;28;19930;-83
2021/10/03 09:14:48;;;;;;;;;;;;;;;-142.75;100.00;75546.81;5101339;28;19951;-83
2021/10/03 09:17:17;;;;;;;;;;;;;;;-142.75;100.00;75546.81;5099972;28;20391;-83
2021/10/03 09:20:02;;;;;;;;;;;;;;;-142.75;100.00;75548.78;5096977;28;19983;-82
2021/10/03 09:22:27;;;;;;;;;;;;;;;-142.75;100.00;75546.81;5095395;28;19923;-82
2021/10/03 09:24:52;;;;;;;;;;;;;;;-142.75;100.00;75546.81;5089902;28;19920;-82
2021/10/03 09:27:17;;;;;;;;;;;;;;;-142.75;100.00;75546.81;5091668;28;19916;-81
2021/10/03 09:29:42;;;;;;;;;;;;;;;-142.75;100.00;75552.72;5097007;28;20388;-82
2021/10/03 09:32:13;;;;;;;;;;;;;;;-142.75;100.00;75558.63;5094113;28;19923;-83
2021/10/03 09:34:39;;;;;;;;;;;;;;;-142.75;100.00;75558.63;5091981;28;19922;-82
2021/10/03 09:37:24;;;;;;;;;;;;;;;-142.75;100.00;75556.66;5095025;28;19924;-82
2021/10/03 09:39:51;;;;;;;;;;;;;;;-142.75;100.00;75562.56;5091306;28;20315;-82
2021/10/03 09:42:17;;;;;;;;;;;;;;;-142.75;100.00;75566.50;5088747;28;19994;-81
2021/10/03 09:45:08;;;;;;;;;;;;;;;-142.75;100.00;75570.44;5093502;28;19923;-83
2021/10/03 09:47:34;;;;;;;;;;;;;;;-142.75;100.00;75572.41;5102073;28;20301;-84
2021/10/03 09:50:01;;;;;;;;;;;;;;;-142.75;100.00;75574.38;5103582;28;19924;-83
2021/10/03 09:52:27;;;;;;;;;;;;;;;-142.75;100.00;75570.44;5088779;28;20032;-84
2021/10/03 09:54:52;;;;;;;;;;;;;;;-142.75;100.00;75572.41;5093187;28;19977;-83
2021/10/03 09:57:18;;;;;;;;;;;;;;;-142.75;100.00;75578.31;5108228;28;19923;-83
2021/10/03 09:59:45;;;;;;;;;;;;;;;-142.75;100.00;75574.38;5103926;28;19924;-83
2021/10/03 10:02:11;;;;;;;;;;;;;;;-142.75;100.00;75562.56;5104467;28;19922;-84
2021/10/03 10:04:36;;;;;;;;;;;;;;;-142.75;100.00;75564.53;5101356;28;19924;-82
2021/10/03 10:07:02;;;;;;;;;;;;;;;-142.75;100.00;75556.66;5101435;28;19969;-82
2021/10/03 10:09:28;;;;;;;;;;;;;;;-142.75;100.00;75570.44;5101782;28;19916;-84
2021/10/03 10:12:07;;;;;;;;;;;;;;;-142.75;100.00;75568.47;5093565;28;19937;-84
2021/10/03 10:14:38;;;;;;;;;;;;;;;-142.75;100.00;75578.31;5105936;28;19916;-83
2021/10/03 10:17:22;;;;;;;;;;;;;;;-142.75;100.00;75576.34;5102022;28;19998;-84
2021/10/03 10:19:47;;;;;;;;;;;;;;;-142.75;100.00;75570.44;5101466;28;19935;-83
2021/10/03 10:22:15;;;;;;;;;;;;;;;-142.75;100.00;75566.50;5097806;28;19917;-82
2021/10/03 10:24:43;;;;;;;;;;;;;;;-142.75;100.00;75588.16;5100936;28;19916;-81
2021/10/03 10:27:09;;;;;;;;;;;;;;;-142.75;100.00;75605.84;5096560;28;19923;-81
2021/10/03 10:29:47;;;;;;;;;;;;;;;-142.75;100.00;75605.84;5112563;28;19915;-84
2021/10/03 10:32:12;;;;;;;;;;;;;;;-142.75;100.00;75601.91;5106098;28;19951;-83
2021/10/03 10:34:56;;;;;;;;;;;;;;;-142.75;100.00;75574.38;5102002;28;19923;-85
2021/10/03 10:37:22;;;;;;;;;;;;;;;-142.75;100.00;75582.25;5114310;28;19916;-83
2021/10/03 10:39:47;;;;;;;;;;;;;;;-142.75;100.00;75574.38;5099012;28;20604;-85
2021/10/03 10:42:22;;;;;;;;;;;;;;;-142.75;100.00;75588.16;5100085;28;19924;-85
2021/10/03 10:44:48;;;;;;;;;;;;;;;-142.75;100.00;75576.34;5098172;28;20416;-84
2021/10/03 10:47:23;;;;;;;;;;;;;;;-142.75;100.00;75590.13;5097590;28;19979;-83
2021/10/03 10:49:53;;;;;;;;;;;;;;;-142.75;100.00;75594.06;5098301;28;20015;-84
2021/10/03 10:52:18;;;;;;;;;;;;;;;-142.75;100.00;75582.25;5097327;28;20369;-85
2021/10/03 10:54:59;;;;;;;;;;;;;;;-142.75;100.00;75578.31;5114539;28;19922;-85
2021/10/03 10:57:24;;;;;;;;;;;;;;;-142.75;100.00;75574.38;5108522;28;19923;-85
2021/10/03 11:00:08;;;;;;;;;;;;;;;-142.75;100.00;75574.38;5097252;28;19928;-84
2021/10/03 11:03:03;;;;;;;;;;;;;;;-142.75;100.00;75566.50;5096332;28;19923;-84
2021/10/03 11:05:31;;;;;;;;;;;;;;;-142.75;100.00;75601.91;5071965;28;20392;-85
2021/10/03 11:08:15;;;;;;;;;;;;;;;-142.75;100.00;75605.84;5095657;28;19919;-85
2021/10/03 11:10:56;;;;;;;;;;;;;;;-142.75;100.00;75633.41;5109337;28;19954;-84
2021/10/03 11:13:40;;;;;;;;;;;;;;;-142.75;100.00;75655.06;5096671;28;19920;-84
2021/10/03 11:16:21;;;;;;;;;;;;;;;-142.75;100.00;75676.69;5105230;28;19922;-85
2021/10/03 11:19:00;;;;;;;;;;;;;;;-142.75;100.00;75700.31;5097572;28;19947;-84
2021/10/03 11:21:26;;;;;;;;;;;;;;;-142.75;100.00;75692.44;5111427;28;19979;-86
2021/10/03 11:23:52;;;;;;;;;;;;;;;-142.75;100.00;75678.66;5108280;28;19931;-85
2021/10/03 11:26:18;;;;;;;;;;;;;;;-142.75;100.00;75698.34;5110085;28;19915;-85
2021/10/03 11:28:55;;;;;;;;;;;;;;;-142.75;100.00;75708.19;5098754;28;19916;-84
2021/10/03 11:31:40;;;;;;;;;;;;;;;-142.75;100.00;75712.13;5108250;28;19916;-85
2021/10/03 11:34:06;;;;;;;;;;;;;;;-142.75;100.00;75714.09;5116264;28;19976;-84
2021/10/03 11:36:31;;;;;;;;;;;;;;;-142.75;100.00;75712.13;5105607;28;19920;-84
2021/10/03 11:38:59;;;;;;;;;;;;;;;-142.75;100.00;75700.31;5097754;28;19981;-85
2021/10/03 11:41:25;;;;;;;;;;;;;;;-142.75;100.00;75716.06;5106008;28;19923;-84
2021/10/03 11:43:50;;;;;;;;;;;;;;;-142.75;100.00;75714.09;5099128;28;19931;-84
2021/10/03 11:46:15;;;;;;;;;;;;;;;-142.75;100.00;75729.84;5098687;28;20281;-82
2021/10/03 11:48:40;;;;;;;;;;;;;;;-142.75;100.00;75735.75;5105346;28;19928;-84
2021/10/03 11:51:06;;;;;;;;;;;;;;;-142.75;100.00;75753.47;5101518;28;19919;-84
2021/10/03 11:53:32;;;;;;;;;;;;;;;-142.75;100.00;75759.38;5113788;28;19916;-81
2021/10/03 11:56:07;;;;;;;;;;;;;;;-142.75;100.00;75763.28;5117914;28;19926;-84
2021/10/03 11:58:36;;;;;;;;;;;;;;;-142.75;100.00;75790.84;5103621;28;20278;-84
2021/10/03 12:01:02;;;;;;;;;;;;;;;-142.75;100.00;75820.38;5106586;28;19923;-84
2021/10/03 12:03:30;;;;;;;;;;;;;;;-142.75;100.00;75855.81;5104482;28;19924;-84
2021/10/03 12:05:56;;;;;;;;;;;;;;;-142.75;100.00;75838.09;5118550;22;19923;-81
2021/10/03 12:08:21;;;;;;;;;;;;;;;-142.75;100.00;75810.53;5106250;28;19920;-81
2021/10/03 12:10:50;;;;;;;;;;;;;;;-142.75;100.00;75818.41;5106846;27;20335;-81
2021/10/03 12:13:20;;;;;;;;;;;;;;;-142.75;100.00;75822.34;5107582;28;20346;-80
2021/10/03 12:15:47;;;;;;;;;;;;;;;-142.75;100.00;75808.56;5102107;28;19917;-82
2021/10/03 12:18:43;;;;;;;;;;;;;;;-142.75;100.00;75818.41;5085409;28;20362;-82